createdAt,value
2018-02-08T00:00:38.972Z,-1
2018-02-08T00:01:42.987Z,-1
2018-02-08T00:02:48.318Z,-1
2018-02-08T00:03:51.836Z,-1
2018-02-08T00:04:55.800Z,-1
2018-02-08T00:05:59.237Z,-1
2018-02-08T00:07:03.539Z,-0.9
2018-02-08T00:08:07.803Z,-1
2018-02-08T00:09:12.003Z,-1
2018-02-08T00:10:16.972Z,-1
2018-02-08T00:11:23.937Z,-1
2018-02-08T00:12:27.983Z,-1
2018-02-08T00:13:31.998Z,-1.1
2018-02-08T00:14:35.544Z,-1
2018-02-08T00:15:38.989Z,-1
2018-02-08T00:16:43.220Z,-1
2018-02-08T00:17:47.677Z,-1
2018-02-08T00:18:51.191Z,-1
2018-02-08T00:19:55.407Z,-1.1
2018-02-08T00:20:59.514Z,-1
2018-02-08T00:22:38.468Z,-1
2018-02-08T00:23:41.806Z,-1
2018-02-08T00:24:46.128Z,-1
2018-02-08T00:25:51.217Z,-1
2018-02-08T00:26:55.313Z,-1
2018-02-08T00:27:59.138Z,-1
2018-02-08T00:29:02.805Z,-1
2018-02-08T00:30:07.014Z,-1
2018-02-08T00:31:11.735Z,-1
2018-02-08T00:32:15.824Z,-1
2018-02-08T00:33:23.364Z,-1
2018-02-08T00:34:27.693Z,-1
2018-02-08T00:35:31.646Z,-1
2018-02-08T00:36:35.899Z,-1.1
2018-02-08T00:37:39.297Z,-1.1
2018-02-08T00:38:43.603Z,-1.1
2018-02-08T00:39:47.312Z,-1.1
2018-02-08T00:40:50.934Z,-1.1
2018-02-08T00:41:54.455Z,-1.1
2018-02-08T00:42:57.952Z,-1.1
2018-02-08T00:44:04.991Z,-1.1
2018-02-08T00:45:09.161Z,-1.1
2018-02-08T00:46:12.731Z,-1.1
2018-02-08T00:47:16.157Z,-1.1
2018-02-08T00:48:20.317Z,-1.1
2018-02-08T00:49:23.831Z,-1.1
2018-02-08T00:50:27.309Z,-1.1
2018-02-08T00:51:30.878Z,-1.1
2018-02-08T00:52:34.917Z,-1.1
2018-02-08T00:53:38.541Z,-1.1
2018-02-08T00:55:18.301Z,-1.1
2018-02-08T00:56:23.489Z,-1.1
2018-02-08T00:57:27.839Z,-1.1
2018-02-08T00:58:32.350Z,-1.2
2018-02-08T00:59:35.947Z,-1.1
2018-02-08T01:00:40.357Z,-1.1
2018-02-08T01:01:43.932Z,-1.1
2018-02-08T01:02:47.419Z,-1.2
2018-02-08T01:03:50.850Z,-1.2
2018-02-08T01:04:54.267Z,-1.2
2018-02-08T01:06:01.194Z,-1.2
2018-02-08T01:07:04.874Z,-1.2
2018-02-08T01:08:08.484Z,-1.2
2018-02-08T01:09:11.976Z,-1.2
2018-02-08T01:10:16.120Z,-1.2
2018-02-08T01:11:19.929Z,-1.2
2018-02-08T01:12:23.293Z,-1.1
2018-02-08T01:13:27.394Z,-1.1
2018-02-08T01:14:30.842Z,-1.2
2018-02-08T01:15:34.921Z,-1.2
2018-02-08T01:16:42.161Z,-1.2
2018-02-08T01:17:45.441Z,-1.2
2018-02-08T01:18:48.926Z,-1.2
2018-02-08T01:19:53.018Z,-1.1
2018-02-08T01:20:56.525Z,-1.2
2018-02-08T01:22:00.061Z,-1.2
2018-02-08T01:23:03.488Z,-1.2
2018-02-08T01:24:06.938Z,-1.2
2018-02-08T01:25:11.293Z,-1.2
2018-02-08T01:26:14.760Z,-1.2
2018-02-08T01:27:21.967Z,-1.2
2018-02-08T01:28:25.506Z,-1.2
2018-02-08T01:29:28.952Z,-1.2
2018-02-08T01:30:32.387Z,-1.2
2018-02-08T01:31:36.257Z,-1.2
2018-02-08T01:32:40.023Z,-1.2
2018-02-08T01:33:44.054Z,-1.2
2018-02-08T01:34:48.198Z,-1.2
2018-02-08T01:35:51.652Z,-1.2
2018-02-08T01:36:55.159Z,-1.2
2018-02-08T01:38:02.900Z,-1.2
2018-02-08T01:39:06.365Z,-1.2
2018-02-08T01:40:09.852Z,-1.2
2018-02-08T01:41:13.928Z,-1.2
2018-02-08T01:42:17.464Z,-1.1
2018-02-08T01:43:21.038Z,-1.1
2018-02-08T01:44:24.595Z,-1.2
2018-02-08T01:45:28.100Z,-1.2
2018-02-08T01:46:31.611Z,-1.1
2018-02-08T01:47:34.949Z,-1.2
2018-02-08T01:48:42.537Z,-1.2
2018-02-08T01:49:45.934Z,-1.1
2018-02-08T01:50:49.390Z,-1.2
2018-02-08T01:51:52.899Z,-1.2
2018-02-08T01:52:56.378Z,-1.1
2018-02-08T01:53:59.925Z,-1.1
2018-02-08T01:55:03.303Z,-1.2
2018-02-08T01:56:06.667Z,-1.1
2018-02-08T01:57:10.094Z,-1.1
2018-02-08T01:58:13.635Z,-1.1
2018-02-08T01:59:21.391Z,-1.1
2018-02-08T02:00:24.872Z,-1.1
2018-02-08T02:01:28.815Z,-1.2
2018-02-08T02:02:32.203Z,-1.1
2018-02-08T02:03:36.072Z,-1.2
2018-02-08T02:04:39.511Z,-1.2
2018-02-08T02:05:44.044Z,-1.2
2018-02-08T02:06:47.675Z,-1.2
2018-02-08T02:07:51.209Z,-1.2
2018-02-08T02:08:55.117Z,-1.2
2018-02-08T02:10:34.020Z,-1.2
2018-02-08T02:11:37.504Z,-1.2
2018-02-08T02:12:41.108Z,-1.2
2018-02-08T02:13:44.572Z,-1.1
2018-02-08T02:14:48.145Z,-1.1
2018-02-08T02:15:51.557Z,-1.1
2018-02-08T02:16:55.066Z,-1.1
2018-02-08T02:17:58.588Z,-1.1
2018-02-08T02:19:01.998Z,-1.1
2018-02-08T02:20:06.005Z,-1.1
2018-02-08T02:21:13.077Z,-1.1
2018-02-08T02:22:17.105Z,-1.1
2018-02-08T02:23:20.587Z,-1.1
2018-02-08T02:24:24.154Z,-1.1
2018-02-08T02:25:27.500Z,-1.1
2018-02-08T02:26:30.775Z,-1.1
2018-02-08T02:27:34.636Z,-1.1
2018-02-08T02:28:38.695Z,-1.2
2018-02-08T02:29:42.119Z,-1.2
2018-02-08T02:30:45.846Z,-1.2
2018-02-08T02:31:52.885Z,-1.3
2018-02-08T02:32:56.227Z,-1.2
2018-02-08T02:33:59.615Z,-1.2
2018-02-08T02:35:03.169Z,-1.1
2018-02-08T02:36:06.720Z,-1.1
2018-02-08T02:37:10.242Z,-1.1
2018-02-08T02:38:13.608Z,-1.1
2018-02-08T02:39:17.046Z,-1.1
2018-02-08T02:40:21.057Z,-1.1
2018-02-08T02:41:24.848Z,-1.1
2018-02-08T02:42:32.745Z,-1.1
2018-02-08T02:43:36.325Z,-1.1
2018-02-08T02:44:39.765Z,-1.2
2018-02-08T02:45:43.059Z,-1.1
2018-02-08T02:46:46.573Z,-1.1
2018-02-08T02:47:50.092Z,-1.2
2018-02-08T02:48:53.451Z,-1.1
2018-02-08T02:49:56.757Z,-1.2
2018-02-08T02:51:00.819Z,-1.1
2018-02-08T02:52:04.371Z,-1.2
2018-02-08T02:53:11.912Z,-1.1
2018-02-08T02:54:15.346Z,-1.1
2018-02-08T02:55:18.896Z,-1.1
2018-02-08T02:56:22.222Z,-1.1
2018-02-08T02:57:26.772Z,-1.1
2018-02-08T02:58:30.192Z,-1.1
2018-02-08T02:59:33.633Z,-1.1
2018-02-08T03:00:37.216Z,-1.1
2018-02-08T03:01:41.540Z,-1.1
2018-02-08T03:02:45.192Z,-1.2
2018-02-08T03:03:52.255Z,-1.2
2018-02-08T03:04:56.150Z,-1.2
2018-02-08T03:05:59.614Z,-1.2
2018-02-08T03:07:02.791Z,-1.1
2018-02-08T03:08:09.054Z,-1.2
2018-02-08T03:09:12.465Z,-1.1
2018-02-08T03:10:15.866Z,-1.2
2018-02-08T03:11:20.009Z,-1.1
2018-02-08T03:12:24.098Z,-1.1
2018-02-08T03:13:27.581Z,-1.1
2018-02-08T03:14:34.542Z,-1.1
2018-02-08T03:15:37.915Z,-1.1
2018-02-08T03:16:41.579Z,-1.1
2018-02-08T03:17:45.739Z,-1.1
2018-02-08T03:18:50.207Z,-1.2
2018-02-08T03:19:53.536Z,-1.2
2018-02-08T03:20:57.925Z,-1.2
2018-02-08T03:22:01.885Z,-1.2
2018-02-08T03:23:05.490Z,-1.2
2018-02-08T03:24:08.895Z,-1.1
2018-02-08T03:25:15.963Z,-1.2
2018-02-08T03:26:19.260Z,-1.2
2018-02-08T03:27:22.618Z,-1.2
2018-02-08T03:28:26.266Z,-1.2
2018-02-08T03:29:29.757Z,-1.1
2018-02-08T03:30:33.126Z,-1.1
2018-02-08T03:31:36.967Z,-1.1
2018-02-08T03:32:40.501Z,-1.2
2018-02-08T03:33:45.569Z,-1.2
2018-02-08T03:34:49.068Z,-1.1
2018-02-08T03:35:56.074Z,-1.2
2018-02-08T03:36:59.444Z,-1.1
2018-02-08T03:38:02.959Z,-1.2
2018-02-08T03:39:06.408Z,-1.1
2018-02-08T03:40:09.869Z,-1.1
2018-02-08T03:41:13.368Z,-1.2
2018-02-08T03:42:16.757Z,-1.2
2018-02-08T03:43:20.453Z,-1.1
2018-02-08T03:44:23.975Z,-1.2
2018-02-08T03:45:27.413Z,-1.2
2018-02-08T03:46:34.490Z,-1.2
2018-02-08T03:47:38.001Z,-1.2
2018-02-08T03:48:41.435Z,-1.2
2018-02-08T03:49:44.883Z,-1.2
2018-02-08T03:50:48.343Z,-1.3
2018-02-08T03:51:51.675Z,-1.2
2018-02-08T03:52:55.928Z,-1.1
2018-02-08T03:53:59.731Z,-1.1
2018-02-08T03:55:03.202Z,-1.1
2018-02-08T03:56:06.789Z,-1.1
2018-02-08T03:57:14.891Z,-1.1
2018-02-08T03:58:18.256Z,-1.2
2018-02-08T03:59:22.989Z,-1.2
2018-02-08T04:00:26.498Z,-1.1
2018-02-08T04:01:29.803Z,-1.1
2018-02-08T04:02:33.290Z,-1.1
2018-02-08T04:03:38.326Z,-1.1
2018-02-08T04:04:41.939Z,-1.1
2018-02-08T04:05:45.397Z,-1.1
2018-02-08T04:06:48.852Z,-1.2
2018-02-08T04:07:55.774Z,-1.2
2018-02-08T04:08:59.181Z,-1.2
2018-02-08T04:10:02.889Z,-1.2
2018-02-08T04:11:06.406Z,-1.2
2018-02-08T04:12:09.895Z,-1.2
2018-02-08T04:13:13.395Z,-1.2
2018-02-08T04:14:16.896Z,-1.2
2018-02-08T04:15:20.552Z,-1.2
2018-02-08T04:16:24.842Z,-1.2
2018-02-08T04:17:28.364Z,-1.2
2018-02-08T04:18:35.643Z,-1.2
2018-02-08T04:19:39.112Z,-1.2
2018-02-08T04:20:42.543Z,-1.2
2018-02-08T04:21:46.038Z,-1.2
2018-02-08T04:22:50.076Z,-1.2
2018-02-08T04:23:53.431Z,-1.2
2018-02-08T04:24:57.032Z,-1.2
2018-02-08T04:26:02.147Z,-1.2
2018-02-08T04:27:05.503Z,-1.1
2018-02-08T04:28:08.976Z,-1.1
2018-02-08T04:29:16.884Z,-1.2
2018-02-08T04:30:20.315Z,-1.2
2018-02-08T04:31:23.792Z,-1.2
2018-02-08T04:32:27.214Z,-1.2
2018-02-08T04:33:32.507Z,-1.2
2018-02-08T04:34:35.817Z,-1.2
2018-02-08T04:35:39.122Z,-1.1
2018-02-08T04:36:42.353Z,-1.3
2018-02-08T04:37:45.833Z,-1.1
2018-02-08T04:38:52.523Z,-1.1
2018-02-08T04:39:59.390Z,-1.2
2018-02-08T04:41:02.837Z,-1.2
2018-02-08T04:42:08.629Z,-1.2
2018-02-08T04:43:12.104Z,-1.2
2018-02-08T04:44:16.883Z,-1.2
2018-02-08T04:45:20.847Z,-1.2
2018-02-08T04:46:24.914Z,-1.1
2018-02-08T04:47:31.575Z,-1.2
2018-02-08T04:48:35.068Z,-1.1
2018-02-08T04:49:39.046Z,-1.1
2018-02-08T04:50:46.983Z,-1.1
2018-02-08T04:51:51.117Z,-1.1
2018-02-08T04:52:55.908Z,-1.1
2018-02-08T04:54:00.025Z,-1.1
2018-02-08T04:55:04.218Z,-1.1
2018-02-08T04:56:08.530Z,-1.1
2018-02-08T04:57:11.937Z,-1.1
2018-02-08T04:58:15.586Z,-1.1
2018-02-08T04:59:19.021Z,-1.3
2018-02-08T05:00:22.390Z,-1.2
2018-02-08T05:01:30.310Z,-1.3
2018-02-08T05:02:33.850Z,-1.3
2018-02-08T05:03:37.207Z,-1.2
2018-02-08T05:04:41.987Z,-1.2
2018-02-08T05:05:45.425Z,-1.2
2018-02-08T05:06:50.124Z,-1.2
2018-02-08T05:07:54.537Z,-1.2
2018-02-08T05:08:58.162Z,-1.1
2018-02-08T05:10:01.754Z,-1.1
2018-02-08T05:11:07.362Z,-1.2
2018-02-08T05:12:15.284Z,-1.1
2018-02-08T05:13:18.852Z,-1.1
2018-02-08T05:14:22.328Z,-1.2
2018-02-08T05:15:26.853Z,-1.2
2018-02-08T05:16:30.295Z,-1.2
2018-02-08T05:17:33.672Z,-1.2
2018-02-08T05:18:38.668Z,-1.2
2018-02-08T05:19:43.239Z,-1.2
2018-02-08T05:20:47.374Z,-1.2
2018-02-08T05:21:51.814Z,-1.2
2018-02-08T05:22:58.720Z,-1.3
2018-02-08T05:24:04.476Z,-1.2
2018-02-08T05:25:08.669Z,-1.2
2018-02-08T05:26:12.085Z,-1.3
2018-02-08T05:27:25.431Z,-1.3
2018-02-08T05:28:28.828Z,-1.3
2018-02-08T05:29:32.955Z,-1.3
2018-02-08T05:30:36.477Z,-1.4
2018-02-08T05:31:39.866Z,-1.3
2018-02-08T05:32:43.355Z,-1.3
2018-02-08T05:33:53.844Z,-1.3
2018-02-08T05:34:57.419Z,-1.3
2018-02-08T05:36:01.440Z,-1.3
2018-02-08T05:37:04.847Z,-1.3
2018-02-08T05:38:08.314Z,-1.3
2018-02-08T05:39:12.964Z,-1.4
2018-02-08T05:40:17.098Z,-1.3
2018-02-08T05:41:20.446Z,-1.3
2018-02-08T05:42:24.401Z,-1.4
2018-02-08T05:43:29.074Z,-1.3
2018-02-08T05:44:36.528Z,-1.4
2018-02-08T05:45:40.375Z,-1.5
2018-02-08T05:46:44.502Z,-1.6
2018-02-08T05:47:48.472Z,-1.5
2018-02-08T05:48:52.015Z,-1.5
2018-02-08T05:49:55.466Z,-1.4
2018-02-08T05:50:58.972Z,-1.3
2018-02-08T05:52:02.416Z,-1.4
2018-02-08T05:53:07.224Z,-1.3
2018-02-08T05:54:10.726Z,-1.3
2018-02-08T05:55:17.580Z,-1.2
2018-02-08T05:56:21.068Z,-1.3
2018-02-08T05:57:24.567Z,-1.3
2018-02-08T05:58:28.126Z,-1.2
2018-02-08T05:59:31.738Z,-1.2
2018-02-08T06:00:35.182Z,-1.2
2018-02-08T06:01:38.761Z,-1.2
2018-02-08T06:02:42.933Z,-1.2
2018-02-08T06:03:46.286Z,-1.3
2018-02-08T06:04:49.705Z,-1.2
2018-02-08T06:05:58.393Z,-1.2
2018-02-08T06:07:03.546Z,-1.3
2018-02-08T06:08:07.013Z,-1.4
2018-02-08T06:09:10.407Z,-1.4
2018-02-08T06:10:13.802Z,-1.5
2018-02-08T06:11:17.886Z,-1.4
2018-02-08T06:12:22.065Z,-1.4
2018-02-08T06:13:25.569Z,-1.4
2018-02-08T06:14:29.104Z,-1.4
2018-02-08T06:15:33.511Z,-1.4
2018-02-08T06:16:40.481Z,-1.4
2018-02-08T06:17:43.866Z,-1.3
2018-02-08T06:18:48.286Z,-1.3
2018-02-08T06:19:51.958Z,-1.3
2018-02-08T06:20:55.554Z,-1.3
2018-02-08T06:21:59.009Z,-1.3
2018-02-08T06:23:02.380Z,-1.3
2018-02-08T06:24:05.678Z,-1.3
2018-02-08T06:25:09.690Z,-1.4
2018-02-08T06:26:13.828Z,-1.3
2018-02-08T06:27:53.313Z,-1.3
2018-02-08T06:28:56.744Z,-1.3
2018-02-08T06:30:01.571Z,-1.3
2018-02-08T06:31:05.618Z,-1.3
2018-02-08T06:32:09.036Z,-1.3
2018-02-08T06:33:14.561Z,-1.3
2018-02-08T06:34:18.106Z,-1.3
2018-02-08T06:35:21.599Z,-1.3
2018-02-08T06:36:25.084Z,-1.3
2018-02-08T06:37:28.648Z,-1.3
2018-02-08T06:38:37.259Z,-1.4
2018-02-08T06:39:42.145Z,-1.3
2018-02-08T06:40:45.461Z,-1.3
2018-02-08T06:41:50.028Z,-1.3
2018-02-08T06:42:53.542Z,-1.3
2018-02-08T06:43:57.055Z,-1.2
2018-02-08T06:45:00.372Z,-1.3
2018-02-08T06:46:03.984Z,-1.3
2018-02-08T06:47:07.644Z,-1.2
2018-02-08T06:48:11.021Z,-1.3
2018-02-08T06:49:18.218Z,-1.3
2018-02-08T06:50:21.734Z,-1.3
2018-02-08T06:51:25.298Z,-1.3
2018-02-08T06:52:28.692Z,-1.3
2018-02-08T06:53:32.241Z,-1.2
2018-02-08T06:54:36.478Z,-1.3
2018-02-08T06:55:39.865Z,-1.3
2018-02-08T06:56:43.330Z,-1.3
2018-02-08T06:57:46.849Z,-1.3
2018-02-08T06:58:51.446Z,-1.3
2018-02-08T06:59:59.279Z,-1.2
2018-02-08T07:01:03.411Z,-1.3
2018-02-08T07:02:06.949Z,-1.3
2018-02-08T07:03:11.407Z,-1.3
2018-02-08T07:04:14.816Z,-1.3
2018-02-08T07:05:19.353Z,-1.3
2018-02-08T07:06:22.688Z,-1.3
2018-02-08T07:07:25.976Z,-1.2
2018-02-08T07:08:30.133Z,-1.3
2018-02-08T07:09:34.132Z,-1.3
2018-02-08T07:10:41.102Z,-1.3
2018-02-08T07:11:44.462Z,-1.3
2018-02-08T07:12:48.114Z,-1.3
2018-02-08T07:13:51.647Z,-1.3
2018-02-08T07:14:56.244Z,-1.3
2018-02-08T07:15:59.809Z,-1.4
2018-02-08T07:17:04.056Z,-1.3
2018-02-08T07:18:08.343Z,-1.3
2018-02-08T07:19:12.302Z,-1.3
2018-02-08T07:20:15.847Z,-1.3
2018-02-08T07:21:22.816Z,-1.3
2018-02-08T07:22:26.826Z,-1.3
2018-02-08T07:23:30.819Z,-1.3
2018-02-08T07:24:34.293Z,-1.3
2018-02-08T07:25:37.786Z,-1.2
2018-02-08T07:26:41.317Z,-1.2
2018-02-08T07:27:44.960Z,-1.2
2018-02-08T07:28:49.432Z,-1.2
2018-02-08T07:29:53.887Z,-1.2
2018-02-08T07:30:57.862Z,-1.2
2018-02-08T07:32:06.335Z,-1.2
2018-02-08T07:33:09.817Z,-1.2
2018-02-08T07:34:14.311Z,-1.2
2018-02-08T07:35:18.277Z,-1.2
2018-02-08T07:36:21.918Z,-1.2
2018-02-08T07:37:25.891Z,-1.2
2018-02-08T07:38:30.091Z,-1.2
2018-02-08T07:39:33.501Z,-1.1
2018-02-08T07:40:37.581Z,-1.1
2018-02-08T07:41:40.894Z,-1.1
2018-02-08T07:43:20.565Z,-1.1
2018-02-08T07:44:26.792Z,-1.1
2018-02-08T07:45:31.400Z,-1.1
2018-02-08T07:46:35.635Z,-1.1
2018-02-08T07:47:39.107Z,-1.1
2018-02-08T07:48:42.597Z,-1.1
2018-02-08T07:49:46.613Z,-1
2018-02-08T07:50:54.350Z,-1.1
2018-02-08T07:51:57.818Z,-1
2018-02-08T07:53:01.224Z,-1
2018-02-08T07:54:08.310Z,-1
2018-02-08T07:55:12.790Z,-1
2018-02-08T07:56:16.382Z,-1
2018-02-08T07:57:19.901Z,-1.1
2018-02-08T07:58:23.408Z,-1
2018-02-08T07:59:27.435Z,-1
2018-02-08T08:00:31.051Z,-1
2018-02-08T08:01:35.512Z,-0.9
2018-02-08T08:02:38.957Z,-0.9
2018-02-08T08:03:44.128Z,-1
2018-02-08T08:04:53.477Z,-1
2018-02-08T08:05:56.886Z,-1
2018-02-08T08:07:01.408Z,-1
2018-02-08T08:08:04.881Z,-0.9
2018-02-08T08:09:10.063Z,-0.9
2018-02-08T08:10:14.644Z,-0.9
2018-02-08T08:11:17.967Z,-0.9
2018-02-08T08:12:22.058Z,-1
2018-02-08T08:13:25.852Z,-0.9
2018-02-08T08:14:29.354Z,-0.9
2018-02-08T08:15:37.674Z,-0.9
2018-02-08T08:16:43.953Z,-0.9
2018-02-08T08:17:48.175Z,-0.9
2018-02-08T08:18:51.612Z,-0.9
2018-02-08T08:19:57.092Z,-1
2018-02-08T08:21:01.183Z,-0.9
2018-02-08T08:22:05.720Z,-0.9
2018-02-08T08:23:09.255Z,-0.9
2018-02-08T08:24:14.631Z,-0.8
2018-02-08T08:25:19.452Z,-0.9
2018-02-08T08:26:27.153Z,-0.8
2018-02-08T08:27:33.019Z,-0.9
2018-02-08T08:28:36.322Z,-0.9
2018-02-08T08:29:39.929Z,-0.9
2018-02-08T08:30:44.345Z,-0.8
2018-02-08T08:31:48.388Z,-0.8
2018-02-08T08:32:52.018Z,-0.8
2018-02-08T08:33:55.523Z,-0.8
2018-02-08T08:35:00.048Z,-0.8
2018-02-08T08:36:03.666Z,-0.8
2018-02-08T08:37:12.700Z,-0.7
2018-02-08T08:38:16.936Z,-0.7
2018-02-08T08:39:21.906Z,-0.7
2018-02-08T08:40:28.110Z,-0.8
2018-02-08T08:41:32.122Z,-0.8
2018-02-08T08:42:38.495Z,-0.8
2018-02-08T08:43:44.322Z,-1
2018-02-08T08:44:48.443Z,-1.1
2018-02-08T08:45:53.605Z,-1
2018-02-08T08:46:58.321Z,-1
2018-02-08T08:48:40.393Z,-1
2018-02-08T08:49:45.478Z,-0.9
2018-02-08T08:50:49.647Z,-0.9
2018-02-08T08:51:53.085Z,-0.9
2018-02-08T08:52:56.694Z,-0.8
2018-02-08T08:54:00.236Z,-0.8
2018-02-08T08:55:04.334Z,-0.7
2018-02-08T08:56:07.892Z,-0.7
2018-02-08T08:57:11.502Z,-0.7
2018-02-08T08:58:15.475Z,-0.8
2018-02-08T08:59:23.272Z,-0.7
2018-02-08T09:00:26.683Z,-0.7
2018-02-08T09:01:30.267Z,-0.7
2018-02-08T09:02:33.884Z,-0.7
2018-02-08T09:03:37.353Z,-0.8
2018-02-08T09:04:40.718Z,-0.6
2018-02-08T09:05:45.226Z,-0.6
2018-02-08T09:06:49.245Z,-0.6
2018-02-08T09:07:52.908Z,-0.6
2018-02-08T09:08:56.323Z,-0.6
2018-02-08T09:10:03.521Z,-0.6
2018-02-08T09:11:07.036Z,-0.5
2018-02-08T09:12:11.317Z,-0.5
2018-02-08T09:13:15.488Z,-0.5
2018-02-08T09:14:18.968Z,-0.5
2018-02-08T09:15:22.403Z,-0.5
2018-02-08T09:16:25.876Z,-0.6
2018-02-08T09:17:29.368Z,-0.6
2018-02-08T09:18:32.905Z,-0.7
2018-02-08T09:19:36.356Z,-0.6
2018-02-08T09:20:45.250Z,-0.6
2018-02-08T09:21:49.486Z,-0.6
2018-02-08T09:22:52.874Z,-0.6
2018-02-08T09:23:56.413Z,-0.6
2018-02-08T09:24:59.846Z,-0.5
2018-02-08T09:26:03.205Z,-0.5
2018-02-08T09:27:06.684Z,-0.5
2018-02-08T09:28:12.368Z,-0.5
2018-02-08T09:29:16.655Z,-0.5
2018-02-08T09:30:20.041Z,-0.4
2018-02-08T09:31:27.105Z,-0.5
2018-02-08T09:32:32.383Z,-0.5
2018-02-08T09:33:35.912Z,-0.5
2018-02-08T09:34:40.235Z,-0.5
2018-02-08T09:35:43.606Z,-0.5
2018-02-08T09:36:47.110Z,-0.4
2018-02-08T09:37:51.282Z,-0.4
2018-02-08T09:38:55.714Z,-0.3
2018-02-08T09:40:00.125Z,-0.4
2018-02-08T09:41:03.568Z,-0.3
2018-02-08T09:42:10.605Z,-0.4
2018-02-08T09:43:15.017Z,-0.5
2018-02-08T09:44:18.502Z,-0.4
2018-02-08T09:45:22.859Z,-0.4
2018-02-08T09:46:26.226Z,-0.4
2018-02-08T09:47:29.759Z,-0.3
2018-02-08T09:48:34.692Z,-0.3
2018-02-08T09:49:38.132Z,-0.3
2018-02-08T09:50:41.578Z,-0.4
2018-02-08T09:51:44.988Z,-0.4
2018-02-08T09:52:52.132Z,-0.5
2018-02-08T09:53:55.581Z,-0.4
2018-02-08T09:54:59.954Z,-0.4
2018-02-08T09:56:03.271Z,-0.3
2018-02-08T09:57:07.609Z,-0.3
2018-02-08T09:58:11.102Z,-0.4
2018-02-08T09:59:14.782Z,-0.4
2018-02-08T10:00:18.306Z,-0.3
2018-02-08T10:01:21.866Z,-0.2
2018-02-08T10:02:26.295Z,-0.3
2018-02-08T10:03:35.521Z,-0.3
2018-02-08T10:04:40.195Z,-0.4
2018-02-08T10:05:44.266Z,-0.4
2018-02-08T10:06:47.733Z,-0.2
2018-02-08T10:07:51.341Z,-0.2
2018-02-08T10:08:55.800Z,-0.1
2018-02-08T10:09:59.349Z,-0.1
2018-02-08T10:11:04.192Z,-0.1
2018-02-08T10:12:07.714Z,-0.1
2018-02-08T10:13:11.335Z,-0.1
2018-02-08T10:14:18.871Z,-0.3
2018-02-08T10:15:26.487Z,-0.3
2018-02-08T10:16:34.996Z,-0.2
2018-02-08T10:17:38.435Z,-0.2
2018-02-08T10:18:42.274Z,-0.1
2018-02-08T10:19:45.809Z,-0.1
2018-02-08T10:20:49.335Z,-0.1
2018-02-08T10:21:54.400Z,-0.1
2018-02-08T10:23:01.231Z,-0.1
2018-02-08T10:24:04.828Z,-0.1
2018-02-08T10:25:15.854Z,0
2018-02-08T10:26:20.188Z,0.1
2018-02-08T10:27:24.553Z,0.1
2018-02-08T10:28:29.789Z,0
2018-02-08T10:29:35.317Z,0.1
2018-02-08T10:30:41.428Z,0.1
2018-02-08T10:31:44.847Z,0.1
2018-02-08T10:32:49.532Z,0.1
2018-02-08T10:33:53.528Z,0.1
2018-02-08T10:34:58.194Z,0.1
2018-02-08T10:36:07.914Z,0.1
2018-02-08T10:37:14.274Z,0.1
2018-02-08T10:38:30.657Z,0.2
2018-02-08T10:39:36.887Z,0.2
2018-02-08T10:40:42.900Z,0.2
2018-02-08T10:41:46.709Z,0.2
2018-02-08T10:42:52.273Z,0.3
2018-02-08T10:43:55.765Z,0.3
2018-02-08T10:44:59.341Z,0.3
2018-02-08T10:46:04.079Z,0.3
2018-02-08T10:47:15.489Z,0.3
2018-02-08T10:48:21.159Z,0.4
2018-02-08T10:49:27.554Z,0.4
2018-02-08T10:50:33.570Z,0.4
2018-02-08T10:51:37.970Z,0.3
2018-02-08T10:52:44.887Z,0.4
2018-02-08T10:53:48.536Z,0.4
2018-02-08T10:54:53.981Z,0.4
2018-02-08T10:55:59.382Z,0.5
2018-02-08T10:57:05.405Z,0.4
2018-02-08T10:58:12.403Z,0.4
2018-02-08T10:59:18.472Z,0.5
2018-02-08T11:00:24.852Z,0.4
2018-02-08T11:01:29.655Z,0.3
2018-02-08T11:02:34.457Z,0.4
2018-02-08T11:03:39.376Z,0.5
2018-02-08T11:04:44.298Z,0.6
2018-02-08T11:05:47.814Z,0.6
2018-02-08T11:06:53.454Z,0.6
2018-02-08T11:07:59.471Z,0.6
2018-02-08T11:09:07.219Z,0.6
2018-02-08T11:10:12.346Z,0.5
2018-02-08T11:11:16.959Z,0.6
2018-02-08T11:12:21.892Z,0.7
2018-02-08T11:13:26.621Z,0.7
2018-02-08T11:14:30.748Z,0.7
2018-02-08T11:15:36.159Z,0.9
2018-02-08T11:16:39.635Z,1
2018-02-08T11:17:43.732Z,1
2018-02-08T11:18:47.898Z,0.9
2018-02-08T11:19:55.425Z,1
2018-02-08T11:20:59.472Z,1
2018-02-08T11:22:04.419Z,1.1
2018-02-08T11:23:08.110Z,1.1
2018-02-08T11:24:12.928Z,1.1
2018-02-08T11:25:16.567Z,1.2
2018-02-08T11:26:20.105Z,1.2
2018-02-08T11:27:25.824Z,1.2
2018-02-08T11:28:31.291Z,1.2
2018-02-08T11:29:36.395Z,1.1
2018-02-08T11:30:51.019Z,1.1
2018-02-08T11:31:55.704Z,1.1
2018-02-08T11:32:59.578Z,1
2018-02-08T11:34:04.278Z,1
2018-02-08T11:35:09.141Z,1
2018-02-08T11:36:13.815Z,0.9
2018-02-08T11:37:18.437Z,0.8
2018-02-08T11:38:23.671Z,0.8
2018-02-08T11:39:30.202Z,0.7
2018-02-08T11:40:35.954Z,0.8
2018-02-08T11:42:18.620Z,0.9
2018-02-08T11:43:24.156Z,1
2018-02-08T11:44:28.965Z,1
2018-02-08T11:45:32.963Z,0.9
2018-02-08T11:46:37.946Z,1.1
2018-02-08T11:47:42.695Z,1.1
2018-02-08T11:48:46.282Z,1.1
2018-02-08T11:49:52.701Z,1.1
2018-02-08T11:50:56.277Z,1
2018-02-08T11:52:01.467Z,1
2018-02-08T11:53:10.158Z,1
2018-02-08T11:54:14.696Z,1
2018-02-08T11:55:18.345Z,1.1
2018-02-08T11:56:22.162Z,1.2
2018-02-08T11:57:28.949Z,1.1
2018-02-08T11:58:33.821Z,1.1
2018-02-08T11:59:39.373Z,1
2018-02-08T12:00:44.651Z,1.1
2018-02-08T12:01:49.590Z,1.1
2018-02-08T12:02:56.573Z,1.1
2018-02-08T12:04:08.626Z,1.1
2018-02-08T12:05:12.800Z,1.2
2018-02-08T12:06:17.533Z,1.2
2018-02-08T12:07:21.433Z,1.2
2018-02-08T12:08:26.337Z,1.1
2018-02-08T12:09:30.201Z,1.1
2018-02-08T12:10:33.430Z,1.1
2018-02-08T12:11:36.800Z,1
2018-02-08T12:12:40.240Z,1
2018-02-08T12:13:43.658Z,1
2018-02-08T12:14:50.652Z,1.1
2018-02-08T12:15:53.907Z,1.1
2018-02-08T12:16:58.112Z,1.2
2018-02-08T12:18:01.237Z,1.2
2018-02-08T12:19:04.715Z,1.1
2018-02-08T12:20:09.053Z,1.1
2018-02-08T12:21:13.062Z,1.1
2018-02-08T12:22:16.662Z,1.3
2018-02-08T12:23:20.231Z,1.3
2018-02-08T12:24:25.673Z,1.3
2018-02-08T12:25:33.828Z,1.2
2018-02-08T12:26:37.206Z,1.2
2018-02-08T12:27:40.543Z,1.1
2018-02-08T12:28:44.081Z,1.2
2018-02-08T12:29:47.481Z,1.3
2018-02-08T12:30:50.890Z,1.3
2018-02-08T12:31:54.222Z,1.4
2018-02-08T12:32:57.712Z,1.4
2018-02-08T12:34:01.800Z,1.4
2018-02-08T12:35:05.363Z,1.3
2018-02-08T12:36:12.305Z,1.3
2018-02-08T12:37:15.797Z,1.3
2018-02-08T12:38:19.368Z,1.3
2018-02-08T12:39:22.742Z,1.2
2018-02-08T12:40:26.087Z,1.2
2018-02-08T12:41:29.326Z,1.2
2018-02-08T12:42:32.743Z,1.1
2018-02-08T12:43:36.894Z,1.1
2018-02-08T12:44:40.508Z,1
2018-02-08T12:45:44.077Z,1
2018-02-08T12:46:54.041Z,1.1
2018-02-08T12:47:57.318Z,1.2
2018-02-08T12:49:00.725Z,1.2
2018-02-08T12:50:04.933Z,1.2
2018-02-08T12:51:12.205Z,1.2
2018-02-08T12:52:16.112Z,1.3
2018-02-08T12:53:19.715Z,1.2
2018-02-08T12:54:23.808Z,1.1
2018-02-08T12:55:27.833Z,1.1
2018-02-08T12:56:31.228Z,1
2018-02-08T12:57:38.223Z,1
2018-02-08T12:58:41.725Z,1.1
2018-02-08T12:59:45.192Z,1.1
2018-02-08T13:00:48.653Z,1.1
2018-02-08T13:01:52.869Z,1.1
2018-02-08T13:02:57.659Z,1.1
2018-02-08T13:04:01.183Z,1.1
2018-02-08T13:05:06.402Z,1.1
2018-02-08T13:06:10.657Z,1.2
2018-02-08T13:07:15.885Z,1.2
2018-02-08T13:08:22.994Z,1.2
2018-02-08T13:09:27.518Z,1.2
2018-02-08T13:10:31.533Z,1.2
2018-02-08T13:11:35.956Z,1.2
2018-02-08T13:12:40.342Z,1.2
2018-02-08T13:13:45.273Z,1.2
2018-02-08T13:14:49.317Z,1.2
2018-02-08T13:15:52.605Z,1.2
2018-02-08T13:16:56.004Z,1.3
2018-02-08T13:17:59.510Z,1.2
2018-02-08T13:19:06.517Z,1.1
2018-02-08T13:20:10.819Z,1.1
2018-02-08T13:21:14.322Z,1
2018-02-08T13:22:18.313Z,1.2
2018-02-08T13:23:22.301Z,1.2
2018-02-08T13:24:28.012Z,1.2
2018-02-08T13:25:32.036Z,1.2
2018-02-08T13:26:35.488Z,1.2
2018-02-08T13:27:39.059Z,1.2
2018-02-08T13:28:52.332Z,1.1
2018-02-08T13:30:32.876Z,1.2
2018-02-08T13:31:37.103Z,1.1
2018-02-08T13:32:41.242Z,1.1
2018-02-08T13:33:46.409Z,1.1
2018-02-08T13:34:49.910Z,1.2
2018-02-08T13:35:54.299Z,1.2
2018-02-08T13:36:58.291Z,1.2
2018-02-08T13:38:01.859Z,1.2
2018-02-08T13:39:06.502Z,1.2
2018-02-08T13:40:09.907Z,1.1
2018-02-08T13:41:16.835Z,1
2018-02-08T13:42:20.991Z,1.1
2018-02-08T13:43:27.064Z,1.2
2018-02-08T13:44:30.532Z,1.3
2018-02-08T13:45:36.804Z,1.2
2018-02-08T13:46:41.837Z,1.2
2018-02-08T13:47:45.878Z,1.2
2018-02-08T13:48:49.313Z,1.2
2018-02-08T13:49:53.516Z,1.2
2018-02-08T13:50:59.891Z,1.3
2018-02-08T13:52:40.653Z,1.2
2018-02-08T13:53:46.295Z,1.2
2018-02-08T13:54:52.716Z,1.1
2018-02-08T13:55:56.169Z,1.2
2018-02-08T13:56:59.711Z,1.1
2018-02-08T13:58:05.124Z,1.2
2018-02-08T13:59:10.630Z,1.1
2018-02-08T14:00:14.234Z,1.1
2018-02-08T14:01:19.646Z,1.2
2018-02-08T14:02:25.539Z,1.2
2018-02-08T14:04:06.070Z,1.2
2018-02-08T14:05:10.875Z,1.2
2018-02-08T14:06:15.127Z,1.2
2018-02-08T14:07:18.746Z,1.2
2018-02-08T14:08:23.540Z,1.1
2018-02-08T14:09:28.920Z,1
2018-02-08T14:10:33.005Z,1.1
2018-02-08T14:11:37.849Z,1.1
2018-02-08T14:12:43.003Z,1.1
2018-02-08T14:13:46.832Z,1
2018-02-08T14:14:58.193Z,1.1
2018-02-08T14:16:02.183Z,1.1
2018-02-08T14:17:07.604Z,1.1
2018-02-08T14:18:13.192Z,1.1
2018-02-08T14:19:18.279Z,1.1
2018-02-08T14:20:23.490Z,1.2
2018-02-08T14:21:27.156Z,1.3
2018-02-08T14:22:31.701Z,1.2
2018-02-08T14:23:36.017Z,1.1
2018-02-08T14:24:40.111Z,1.1
2018-02-08T14:25:50.233Z,1.2
2018-02-08T14:26:55.059Z,1.2
2018-02-08T14:28:00.103Z,1.2
2018-02-08T14:29:05.615Z,1.2
2018-02-08T14:30:14.430Z,1.2
2018-02-08T14:31:21.336Z,1.1
2018-02-08T14:32:29.354Z,1.2
2018-02-08T14:33:36.735Z,1.2
2018-02-08T14:34:42.377Z,1.2
2018-02-08T14:35:46.759Z,1.1
2018-02-08T14:36:58.744Z,1.2
2018-02-08T14:38:04.507Z,1.2